Impacts TAF Board INFO
FOR SITUATIONAL AWARENESS. NOT TO BE USED FOR FLIGHT PLANNING PURPOSES.
IDs:

KDEN - Denver Intl, CO, US

Issued at 0659 UTC 12 Dec 2017
Updated at 0818 UTC 12 Dec 2017
Potential Impact None Slight Moderate High
Time0753Z 12/09Z 12/10Z 12/11Z 12/12Z 12/13Z 12/14Z 12/15Z 12/16Z 12/17Z 12/18Z 12/19Z 12/20Z 12/21Z>>
Type OBS PRVL PRVL PRVL PRVL PRVL PRVL PRVL PRVL PRVL PRVL PRVL PRVL PRVL
VIS 10 >6 >6 >6 >6 >6 >6 >6 >6 >6 >6 >6 >6 >6
CIG -- -- -- -- -- -- -- -- -- -- -- -- -- --
Cover CLR SKC SKC SKC SKC SKC SKC SKC SKC SKC FEW FEW FEW FEW
FltCat VFR VFR VFR VFR VFR VFR VFR VFR VFR VFR VFR VFR VFR VFR
WX -- -- -- -- -- -- -- -- -- -- -- -- -- --
WDir 220 200 200 200 200 200 200 200 200 200 90 90 90 90
WSpd 9 10 10 10 10 10 10 10 10 10 7 7 7 7
WGst -- -- -- -- -- -- -- -- -- -- -- -- -- --

Raw TAF
KDEN 120659Z 1207/1312 20010KT P6SM SKC
  FM121800 09007KT P6SM FEW220
  FM130100 23011KT P6SM SKC


Raw METAR
KDEN 120753Z 22009KT 10SM CLR M02/M13 A3043 RMK AO2 SLP291 T10171128
KDEN 120653Z 22006KT 10SM CLR 01/M14 A3045 RMK AO2 SLP291 T00111139 401391039
KDEN 120553Z 17010KT 10SM CLR 01/M13 A3046 RMK AO2 SLP298 T00061133 10056 21039 52003

METAR Board
Radar Display
Forecast Discussion

FOR SITUATIONAL AWARENESS. NOT TO BE USED FOR FLIGHT PLANNING PURPOSES.